HVN1615 VVTS-VVPK
Flight info
| Callsign | HVN1615 |
|---|---|
| Flight time | 0h 44m |
| Altitude | 25000 |
| Route | PATMA5A PATMA PATMA1C |
| Aircraft | A321/M-SDE3FGHIRWY/LB1 |
Departure
| Time | 2026-04-23 14:24 |
|---|---|
| Airport | Tan Son Nhat International Airport (VVTS) |
Arrival
| Time | 2026-04-23 15:09 |
|---|---|
| Airport | Pleiku Airport (VVPK) |
| Time | Latitude | Longitude | Altitude | Speed | Heading |
|---|---|---|---|---|---|
| 2026-04-23 14:03 | 10.81327 | 106.65485 | 38 ft | 0 kts | 158° |
| 2026-04-23 14:15 | 10.81342 | 106.65479 | 37 ft | 4 kts | 159° |
| 2026-04-23 14:15 | 10.81364 | 106.65470 | 37 ft | 4 kts | 142° |
| 2026-04-23 14:16 | 10.81376 | 106.65452 | 37 ft | 4 kts | 86° |
| 2026-04-23 14:16 | 10.81372 | 106.65430 | 35 ft | 1 kts | 69° |
| 2026-04-23 14:16 | 10.81370 | 106.65426 | 35 ft | 2 kts | 69° |
| 2026-04-23 14:18 | 10.81371 | 106.65427 | 35 ft | 1 kts | 69° |
| 2026-04-23 14:18 | 10.81378 | 106.65447 | 37 ft | 5 kts | 69° |
| 2026-04-23 14:18 | 10.81394 | 106.65490 | 37 ft | 8 kts | 69° |
| 2026-04-23 14:19 | 10.81418 | 106.65555 | 37 ft | 12 kts | 69° |
| 2026-04-23 14:19 | 10.81451 | 106.65642 | 37 ft | 15 kts | 69° |
| 2026-04-23 14:19 | 10.81489 | 106.65743 | 37 ft | 15 kts | 69° |
| 2026-04-23 14:19 | 10.81576 | 106.65797 | 37 ft | 17 kts | 4° |
| 2026-04-23 14:20 | 10.81690 | 106.65799 | 33 ft | 18 kts | 339° |
| 2026-04-23 14:20 | 10.81760 | 106.65817 | 35 ft | 8 kts | 67° |
| 2026-04-23 14:20 | 10.81789 | 106.65882 | 36 ft | 11 kts | 69° |
| 2026-04-23 14:20 | 10.81821 | 106.65965 | 37 ft | 14 kts | 69° |
| 2026-04-23 14:21 | 10.81860 | 106.66067 | 36 ft | 17 kts | 69° |
| 2026-04-23 14:21 | 10.81905 | 106.66189 | 36 ft | 18 kts | 68° |
| 2026-04-23 14:21 | 10.81940 | 106.66283 | 38 ft | 14 kts | 69° |
| 2026-04-23 14:21 | 10.81980 | 106.66388 | 37 ft | 18 kts | 69° |
| 2026-04-23 14:22 | 10.82028 | 106.66516 | 33 ft | 17 kts | 69° |
| 2026-04-23 14:22 | 10.82074 | 106.66637 | 34 ft | 20 kts | 69° |
| 2026-04-23 14:22 | 10.82123 | 106.66768 | 31 ft | 19 kts | 69° |
| 2026-04-23 14:22 | 10.82174 | 106.66902 | 33 ft | 21 kts | 69° |
| 2026-04-23 14:23 | 10.82239 | 106.67007 | 36 ft | 16 kts | 13° |
| 2026-04-23 14:23 | 10.82337 | 106.66954 | 35 ft | 14 kts | 294° |
| 2026-04-23 14:23 | 10.82337 | 106.66862 | 33 ft | 15 kts | 251° |
| 2026-04-23 14:23 | 10.82283 | 106.66723 | 32 ft | 42 kts | 249° |
| 2026-04-23 14:24 | 10.82038 | 106.66074 | 39 ft | 149 kts | 249° |
| 2026-04-23 14:24 | 10.81602 | 106.64917 | 635 ft | 193 kts | 247° |
| 2026-04-23 14:24 | 10.81112 | 106.63638 | 1649 ft | 193 kts | 245° |
| 2026-04-23 14:24 | 10.80610 | 106.62311 | 2215 ft | 212 kts | 247° |
| 2026-04-23 14:25 | 10.80057 | 106.60839 | 2608 ft | 234 kts | 248° |
| 2026-04-23 14:25 | 10.79447 | 106.59200 | 3115 ft | 259 kts | 250° |
| 2026-04-23 14:25 | 10.79184 | 106.57973 | 3658 ft | 267 kts | 264° |
| 2026-04-23 14:25 | 10.79684 | 106.55512 | 4878 ft | 278 kts | 299° |
| 2026-04-23 14:26 | 10.81003 | 106.54068 | 5794 ft | 283 kts | 328° |
| 2026-04-23 14:26 | 10.82861 | 106.53433 | 6673 ft | 285 kts | 358° |
| 2026-04-23 14:26 | 10.84800 | 106.53770 | 7526 ft | 285 kts | 26° |
| 2026-04-23 14:26 | 10.86425 | 106.54911 | 8391 ft | 287 kts | 41° |
| 2026-04-23 14:27 | 10.87960 | 106.56226 | 9253 ft | 290 kts | 41° |
| 2026-04-23 14:27 | 10.89516 | 106.57565 | 10073 ft | 295 kts | 41° |
| 2026-04-23 14:27 | 10.90575 | 106.58475 | 10333 ft | 309 kts | 40° |
| 2026-04-23 14:27 | 10.92281 | 106.59938 | 10582 ft | 332 kts | 40° |
| 2026-04-23 14:28 | 10.94115 | 106.61502 | 10777 ft | 354 kts | 40° |
| 2026-04-23 14:28 | 10.96034 | 106.63134 | 11238 ft | 363 kts | 40° |
| 2026-04-23 14:28 | 10.97986 | 106.64793 | 11879 ft | 367 kts | 40° |
| 2026-04-23 14:28 | 10.99954 | 106.66467 | 12558 ft | 370 kts | 40° |
| 2026-04-23 14:29 | 11.01941 | 106.68159 | 13240 ft | 374 kts | 40° |
| 2026-04-23 14:29 | 11.03938 | 106.69860 | 13876 ft | 377 kts | 39° |
| 2026-04-23 14:29 | 11.05957 | 106.71579 | 14437 ft | 380 kts | 39° |
| 2026-04-23 14:29 | 11.07996 | 106.73313 | 14973 ft | 384 kts | 39° |
| 2026-04-23 14:30 | 11.10058 | 106.75066 | 15495 ft | 388 kts | 39° |
| 2026-04-23 14:30 | 11.12148 | 106.76843 | 16006 ft | 393 kts | 39° |
| 2026-04-23 14:30 | 11.14256 | 106.78641 | 16517 ft | 397 kts | 40° |
| 2026-04-23 14:30 | 11.16388 | 106.80459 | 17029 ft | 402 kts | 40° |
| 2026-04-23 14:31 | 11.18541 | 106.82296 | 17530 ft | 406 kts | 40° |
| 2026-04-23 14:31 | 11.20685 | 106.84126 | 18011 ft | 410 kts | 39° |
| 2026-04-23 14:31 | 11.22886 | 106.86003 | 18438 ft | 415 kts | 40° |
| 2026-04-23 14:31 | 11.25110 | 106.87898 | 18848 ft | 419 kts | 40° |
| 2026-04-23 14:32 | 11.27350 | 106.89809 | 19291 ft | 421 kts | 40° |
| 2026-04-23 14:32 | 11.29598 | 106.91730 | 19736 ft | 424 kts | 40° |
| 2026-04-23 14:32 | 11.31867 | 106.93670 | 20164 ft | 427 kts | 40° |
| 2026-04-23 14:32 | 11.34148 | 106.95622 | 20617 ft | 430 kts | 40° |
| 2026-04-23 14:33 | 11.36451 | 106.97591 | 21040 ft | 432 kts | 40° |
| 2026-04-23 14:33 | 11.38760 | 106.99561 | 21459 ft | 435 kts | 40° |
| 2026-04-23 14:33 | 11.41092 | 107.01548 | 21890 ft | 438 kts | 40° |
| 2026-04-23 14:33 | 11.43437 | 107.03552 | 22322 ft | 441 kts | 40° |
| 2026-04-23 14:34 | 11.45795 | 107.05571 | 22749 ft | 444 kts | 40° |
| 2026-04-23 14:34 | 11.48171 | 107.07603 | 23157 ft | 447 kts | 40° |
| 2026-04-23 14:34 | 11.50562 | 107.09650 | 23548 ft | 450 kts | 40° |
| 2026-04-23 14:34 | 11.52966 | 107.11708 | 23878 ft | 453 kts | 40° |
| 2026-04-23 14:35 | 11.55384 | 107.13779 | 24223 ft | 455 kts | 40° |
| 2026-04-23 14:35 | 11.57815 | 107.15859 | 24571 ft | 457 kts | 40° |
| 2026-04-23 14:35 | 11.60259 | 107.17949 | 24810 ft | 459 kts | 40° |
| 2026-04-23 14:35 | 11.62708 | 107.20047 | 24887 ft | 461 kts | 40° |
| 2026-04-23 14:36 | 11.65171 | 107.22157 | 24902 ft | 463 kts | 40° |
| 2026-04-23 14:36 | 11.67641 | 107.24274 | 24902 ft | 463 kts | 40° |
| 2026-04-23 14:36 | 11.70104 | 107.26383 | 24904 ft | 463 kts | 40° |
| 2026-04-23 14:36 | 11.72567 | 107.28493 | 24906 ft | 463 kts | 40° |
| 2026-04-23 14:37 | 11.75030 | 107.30605 | 24911 ft | 463 kts | 40° |
| 2026-04-23 14:37 | 11.77499 | 107.32725 | 24912 ft | 463 kts | 40° |
| 2026-04-23 14:37 | 11.79956 | 107.34835 | 24911 ft | 462 kts | 40° |
| 2026-04-23 14:37 | 11.82418 | 107.36947 | 24916 ft | 462 kts | 40° |
| 2026-04-23 14:38 | 11.84881 | 107.39059 | 24919 ft | 462 kts | 40° |
| 2026-04-23 14:38 | 11.87344 | 107.41169 | 24920 ft | 462 kts | 40° |
| 2026-04-23 14:38 | 11.89773 | 107.43249 | 24925 ft | 462 kts | 40° |
| 2026-04-23 14:38 | 11.92236 | 107.45356 | 24924 ft | 462 kts | 40° |
| 2026-04-23 14:39 | 11.94694 | 107.47462 | 24925 ft | 461 kts | 40° |
| 2026-04-23 14:39 | 11.97146 | 107.49572 | 24920 ft | 461 kts | 40° |
| 2026-04-23 14:39 | 11.99595 | 107.51684 | 24921 ft | 461 kts | 40° |
| 2026-04-23 14:39 | 12.02044 | 107.53796 | 24919 ft | 461 kts | 40° |
| 2026-04-23 14:40 | 12.04496 | 107.55909 | 24918 ft | 461 kts | 40° |
| 2026-04-23 14:40 | 12.06950 | 107.58018 | 24918 ft | 461 kts | 40° |
| 2026-04-23 14:40 | 12.09404 | 107.60126 | 24919 ft | 461 kts | 40° |
| 2026-04-23 14:40 | 12.11853 | 107.62230 | 24919 ft | 461 kts | 40° |
| 2026-04-23 14:41 | 12.14315 | 107.64346 | 24918 ft | 461 kts | 40° |
| 2026-04-23 14:41 | 12.16770 | 107.66458 | 24919 ft | 461 kts | 40° |
| 2026-04-23 14:41 | 12.19221 | 107.68568 | 24918 ft | 461 kts | 40° |
| 2026-04-23 14:41 | 12.21674 | 107.70680 | 24921 ft | 461 kts | 40° |
| 2026-04-23 14:42 | 12.24127 | 107.72792 | 24917 ft | 461 kts | 40° |
| 2026-04-23 14:42 | 12.26580 | 107.74903 | 24915 ft | 461 kts | 40° |
| 2026-04-23 14:42 | 12.29025 | 107.77009 | 24917 ft | 461 kts | 40° |
| 2026-04-23 14:42 | 12.31573 | 107.78992 | 24908 ft | 461 kts | 33° |
| 2026-04-23 14:43 | 12.34405 | 107.80529 | 24905 ft | 461 kts | 23° |
| 2026-04-23 14:43 | 12.37451 | 107.81560 | 24905 ft | 462 kts | 13° |
| 2026-04-23 14:43 | 12.40615 | 107.82123 | 24904 ft | 462 kts | 8° |
| 2026-04-23 14:43 | 12.43793 | 107.82614 | 24901 ft | 462 kts | 8° |
| 2026-04-23 14:44 | 12.46971 | 107.83109 | 24901 ft | 462 kts | 9° |
| 2026-04-23 14:44 | 12.50105 | 107.83603 | 24901 ft | 462 kts | 9° |
| 2026-04-23 14:44 | 12.53279 | 107.84110 | 24901 ft | 462 kts | 9° |
| 2026-04-23 14:44 | 12.56451 | 107.84621 | 24899 ft | 461 kts | 9° |
| 2026-04-23 14:45 | 12.59622 | 107.85131 | 24896 ft | 461 kts | 9° |
| 2026-04-23 14:45 | 12.62786 | 107.85637 | 24897 ft | 461 kts | 9° |
| 2026-04-23 14:45 | 12.65954 | 107.86141 | 24896 ft | 461 kts | 9° |
| 2026-04-23 14:45 | 12.69122 | 107.86644 | 24893 ft | 460 kts | 9° |
| 2026-04-23 14:46 | 12.72284 | 107.87145 | 24893 ft | 460 kts | 9° |
| 2026-04-23 14:46 | 12.75445 | 107.87646 | 24888 ft | 460 kts | 9° |
| 2026-04-23 14:46 | 12.78605 | 107.88149 | 24885 ft | 459 kts | 9° |
| 2026-04-23 14:46 | 12.81760 | 107.88652 | 24885 ft | 459 kts | 9° |
| 2026-04-23 14:47 | 12.84917 | 107.89156 | 24885 ft | 459 kts | 9° |
| 2026-04-23 14:47 | 12.88072 | 107.89660 | 24885 ft | 459 kts | 9° |
| 2026-04-23 14:47 | 12.91225 | 107.90161 | 24882 ft | 458 kts | 9° |
| 2026-04-23 14:47 | 12.94376 | 107.90663 | 24881 ft | 458 kts | 9° |
| 2026-04-23 14:48 | 12.97525 | 107.91165 | 24878 ft | 458 kts | 9° |
| 2026-04-23 14:48 | 13.00672 | 107.91665 | 24876 ft | 458 kts | 9° |
| 2026-04-23 14:48 | 13.03820 | 107.92166 | 24870 ft | 458 kts | 9° |
| 2026-04-23 14:48 | 13.06968 | 107.92668 | 24740 ft | 458 kts | 9° |
| 2026-04-23 14:49 | 13.10078 | 107.93165 | 24503 ft | 459 kts | 9° |
| 2026-04-23 14:49 | 13.13235 | 107.93672 | 23869 ft | 459 kts | 9° |
| 2026-04-23 14:49 | 13.16389 | 107.94177 | 23181 ft | 460 kts | 9° |
| 2026-04-23 14:49 | 13.19558 | 107.94685 | 22403 ft | 460 kts | 9° |
| 2026-04-23 14:50 | 13.22697 | 107.95188 | 21630 ft | 447 kts | 9° |
| 2026-04-23 14:50 | 13.25652 | 107.95661 | 20970 ft | 415 kts | 9° |
| 2026-04-23 14:50 | 13.28504 | 107.96117 | 20342 ft | 413 kts | 9° |
| 2026-04-23 14:50 | 13.31332 | 107.96570 | 19665 ft | 411 kts | 9° |
| 2026-04-23 14:51 | 13.34097 | 107.97012 | 19048 ft | 389 kts | 9° |
| 2026-04-23 14:51 | 13.36685 | 107.97424 | 18455 ft | 365 kts | 9° |
| 2026-04-23 14:51 | 13.39122 | 107.97814 | 17817 ft | 345 kts | 9° |
| 2026-04-23 14:51 | 13.41450 | 107.98186 | 17149 ft | 334 kts | 9° |
| 2026-04-23 14:52 | 13.43726 | 107.98548 | 16479 ft | 327 kts | 9° |
| 2026-04-23 14:52 | 13.45930 | 107.98898 | 15836 ft | 314 kts | 9° |
| 2026-04-23 14:52 | 13.48049 | 107.99237 | 15196 ft | 303 kts | 9° |
| 2026-04-23 14:52 | 13.50103 | 107.99564 | 14577 ft | 295 kts | 9° |
| 2026-04-23 14:53 | 13.52107 | 107.99886 | 13946 ft | 289 kts | 9° |
| 2026-04-23 14:53 | 13.54081 | 108.00203 | 13155 ft | 287 kts | 9° |
| 2026-04-23 14:53 | 13.56054 | 108.00519 | 12335 ft | 286 kts | 9° |
| 2026-04-23 14:53 | 13.58008 | 108.00832 | 11576 ft | 283 kts | 9° |
| 2026-04-23 14:54 | 13.59914 | 108.01138 | 11143 ft | 270 kts | 9° |
| 2026-04-23 14:54 | 13.61728 | 108.01427 | 10735 ft | 257 kts | 9° |
| 2026-04-23 14:54 | 13.63405 | 108.01695 | 10462 ft | 238 kts | 9° |
| 2026-04-23 14:54 | 13.65006 | 108.01952 | 10161 ft | 222 kts | 9° |
| 2026-04-23 14:55 | 13.66480 | 108.02190 | 9900 ft | 207 kts | 9° |
| 2026-04-23 14:55 | 13.67853 | 108.02410 | 9721 ft | 197 kts | 9° |
| 2026-04-23 14:55 | 13.69195 | 108.02626 | 9619 ft | 194 kts | 9° |
| 2026-04-23 14:55 | 13.70528 | 108.02841 | 9519 ft | 194 kts | 9° |
| 2026-04-23 14:56 | 13.71860 | 108.03055 | 9423 ft | 194 kts | 9° |
| 2026-04-23 14:56 | 13.73194 | 108.03270 | 9322 ft | 193 kts | 9° |
| 2026-04-23 14:56 | 13.74522 | 108.03483 | 9226 ft | 193 kts | 9° |
| 2026-04-23 14:56 | 13.75831 | 108.03695 | 9123 ft | 186 kts | 9° |
| 2026-04-23 14:57 | 13.77092 | 108.03899 | 9035 ft | 182 kts | 9° |
| 2026-04-23 14:57 | 13.78342 | 108.04099 | 8955 ft | 182 kts | 9° |
| 2026-04-23 14:57 | 13.79598 | 108.04200 | 8868 ft | 181 kts | 358° |
| 2026-04-23 14:57 | 13.80840 | 108.04007 | 8782 ft | 181 kts | 343° |
| 2026-04-23 14:58 | 13.81960 | 108.03445 | 8640 ft | 179 kts | 321° |
| 2026-04-23 14:58 | 13.82741 | 108.02471 | 8475 ft | 177 kts | 293° |
| 2026-04-23 14:58 | 13.82984 | 108.01255 | 8301 ft | 175 kts | 268° |
| 2026-04-23 14:58 | 13.82861 | 107.99975 | 7857 ft | 185 kts | 262° |
| 2026-04-23 14:59 | 13.82784 | 107.98660 | 7582 ft | 180 kts | 269° |
| 2026-04-23 14:59 | 13.82854 | 107.97394 | 7314 ft | 176 kts | 276° |
| 2026-04-23 14:59 | 13.83081 | 107.96180 | 7143 ft | 171 kts | 284° |
| 2026-04-23 14:59 | 13.83459 | 107.95038 | 6948 ft | 168 kts | 291° |
| 2026-04-23 15:00 | 13.83977 | 107.93979 | 6714 ft | 168 kts | 299° |
| 2026-04-23 15:00 | 13.84627 | 107.92986 | 6456 ft | 168 kts | 305° |
| 2026-04-23 15:00 | 13.85335 | 107.92044 | 6276 ft | 166 kts | 307° |
| 2026-04-23 15:00 | 13.86068 | 107.91135 | 6115 ft | 164 kts | 309° |
| 2026-04-23 15:01 | 13.86811 | 107.90251 | 5962 ft | 162 kts | 309° |
| 2026-04-23 15:01 | 13.87563 | 107.89390 | 5806 ft | 161 kts | 310° |
| 2026-04-23 15:01 | 13.88307 | 107.88573 | 5782 ft | 151 kts | 311° |
| 2026-04-23 15:01 | 13.89047 | 107.87819 | 5735 ft | 152 kts | 314° |
| 2026-04-23 15:02 | 13.89580 | 107.87314 | 5719 ft | 162 kts | 317° |
| 2026-04-23 15:02 | 13.90738 | 107.86286 | 5624 ft | 165 kts | 319° |
| 2026-04-23 15:02 | 13.91653 | 107.85569 | 5611 ft | 166 kts | 323° |
| 2026-04-23 15:02 | 13.92628 | 107.84926 | 5559 ft | 167 kts | 328° |
| 2026-04-23 15:03 | 13.93663 | 107.84391 | 5442 ft | 167 kts | 334° |
| 2026-04-23 15:03 | 13.94763 | 107.83983 | 5239 ft | 170 kts | 342° |
| 2026-04-23 15:03 | 13.95928 | 107.83725 | 4963 ft | 174 kts | 350° |
| 2026-04-23 15:03 | 13.97154 | 107.83670 | 4726 ft | 177 kts | 1° |
| 2026-04-23 15:04 | 13.98333 | 107.83915 | 4795 ft | 173 kts | 18° |
| 2026-04-23 15:04 | 13.99391 | 107.84513 | 4714 ft | 175 kts | 36° |
| 2026-04-23 15:04 | 14.00203 | 107.85441 | 4507 ft | 177 kts | 58° |
| 2026-04-23 15:04 | 14.00525 | 107.86637 | 4388 ft | 171 kts | 92° |
| 2026-04-23 15:05 | 14.00539 | 107.87826 | 4321 ft | 163 kts | 90° |
| 2026-04-23 15:05 | 14.00537 | 107.88975 | 4304 ft | 157 kts | 91° |
| 2026-04-23 15:05 | 14.00577 | 107.90089 | 4314 ft | 154 kts | 88° |
| 2026-04-23 15:05 | 14.00619 | 107.91177 | 4320 ft | 153 kts | 89° |
| 2026-04-23 15:06 | 14.00629 | 107.92275 | 4312 ft | 154 kts | 92° |
| 2026-04-23 15:06 | 14.00583 | 107.93374 | 4261 ft | 153 kts | 93° |
| 2026-04-23 15:06 | 14.00512 | 107.94464 | 4058 ft | 151 kts | 94° |
| 2026-04-23 15:06 | 14.00514 | 107.95549 | 3826 ft | 151 kts | 89° |
| 2026-04-23 15:07 | 14.00527 | 107.96638 | 3531 ft | 153 kts | 91° |
| 2026-04-23 15:07 | 14.00500 | 107.97769 | 3090 ft | 162 kts | 92° |
| 2026-04-23 15:07 | 14.00486 | 107.98907 | 2800 ft | 157 kts | 91° |
| 2026-04-23 15:07 | 14.00468 | 108.00010 | 2526 ft | 150 kts | 91° |
| 2026-04-23 15:08 | 14.00456 | 108.01036 | 2440 ft | 130 kts | 91° |
| 2026-04-23 15:08 | 14.00442 | 108.01791 | 2427 ft | 82 kts | 91° |
| 2026-04-23 15:08 | 14.00433 | 108.02334 | 2414 ft | 68 kts | 90° |
| 2026-04-23 15:09 | 14.00449 | 108.02566 | 2413 ft | 6 kts | 186° |
| 2026-04-23 15:09 | 14.00429 | 108.02518 | 2414 ft | 9 kts | 272° |
| 2026-04-23 15:09 | 14.00432 | 108.02419 | 2414 ft | 25 kts | 271° |
| 2026-04-23 15:09 | 14.00437 | 108.02209 | 2416 ft | 30 kts | 271° |
| 2026-04-23 15:10 | 14.00440 | 108.02067 | 2421 ft | 30 kts | 270° |
| 2026-04-23 15:10 | 14.00444 | 108.01782 | 2427 ft | 30 kts | 271° |
| 2026-04-23 15:10 | 14.00446 | 108.01568 | 2434 ft | 30 kts | 270° |
| 2026-04-23 15:10 | 14.00448 | 108.01352 | 2436 ft | 31 kts | 271° |
| 2026-04-23 15:11 | 14.00453 | 108.01137 | 2442 ft | 30 kts | 271° |
| 2026-04-23 15:11 | 14.00454 | 108.00958 | 2439 ft | 19 kts | 270° |
| 2026-04-23 15:11 | 14.00508 | 108.00888 | 2446 ft | 11 kts | 352° |
| 2026-04-23 15:11 | 14.00538 | 108.00834 | 2447 ft | 11 kts | 279° |
| 2026-04-23 15:12 | 14.00541 | 108.00736 | 2441 ft | 14 kts | 271° |
| 2026-04-23 15:12 | 14.00543 | 108.00644 | 2441 ft | 10 kts | 271° |
| 2026-04-23 15:12 | 14.00561 | 108.00606 | 2452 ft | 5 kts | 351° |
| 2026-04-23 15:12 | 14.00588 | 108.00606 | 2446 ft | 2 kts | 359° |
| 2026-04-23 15:13 | 14.00592 | 108.00606 | 2449 ft | 0 kts | 359° |
| 2026-04-23 15:13 | 14.00548 | 108.00606 | 2441 ft | 3 kts | 358° |
| 2026-04-23 15:13 | 14.00575 | 108.00605 | 2443 ft | 4 kts | 1° |
| 2026-04-23 15:13 | 14.00591 | 108.00606 | 2449 ft | 0 kts | 1° |